createdAt,value
2019-02-25T00:00:11.825Z,12.13
2019-02-25T00:02:42.223Z,10.77
2019-02-25T00:05:09.690Z,9.60
2019-02-25T00:07:36.973Z,9.27
2019-02-25T00:10:05.371Z,9.27
2019-02-25T00:12:33.151Z,8.17
2019-02-25T00:15:00.416Z,10.60
2019-02-25T00:17:27.804Z,10.57
2019-02-25T00:19:55.110Z,7.57
2019-02-25T00:22:22.394Z,9.60
2019-02-25T00:24:49.651Z,9.80
2019-02-25T00:27:17.071Z,9.70
2019-02-25T00:29:44.393Z,9.80
2019-02-25T00:32:11.749Z,9.33
2019-02-25T00:34:39.031Z,9.70
2019-02-25T00:37:06.316Z,9.73
2019-02-25T00:39:33.644Z,9.17
2019-02-25T00:42:00.893Z,8.60
2019-02-25T00:44:28.262Z,12.73
2019-02-25T00:46:55.538Z,9.87
2019-02-25T00:49:22.828Z,7.60
2019-02-25T00:51:51.331Z,11.03
2019-02-25T00:54:18.692Z,9.23
2019-02-25T00:56:45.985Z,11.03
2019-02-25T00:59:14.568Z,8.17
2019-02-25T01:01:41.849Z,9.13
2019-02-25T01:04:09.112Z,11.03
2019-02-25T01:06:37.529Z,11.33
2019-02-25T01:09:07.676Z,12.43
2019-02-25T01:11:35.367Z,10.90
2019-02-25T01:14:02.968Z,11.97
2019-02-25T01:16:30.289Z,10.87
2019-02-25T01:18:57.567Z,12.33
2019-02-25T01:21:24.820Z,11.80
2019-02-25T01:23:52.100Z,10.97
2019-02-25T01:26:19.436Z,11.07
2019-02-25T01:28:46.723Z,9.87
2019-02-25T01:31:14.120Z,11.73
2019-02-25T01:33:41.368Z,8.57
2019-02-25T01:36:08.664Z,10.43
2019-02-25T01:38:35.980Z,10.47
2019-02-25T01:41:03.272Z,9.27
2019-02-25T01:43:30.615Z,9.40
2019-02-25T01:45:59.109Z,9.33
2019-02-25T01:48:26.452Z,10.47
2019-02-25T01:50:53.910Z,9.40
2019-02-25T01:53:21.252Z,9.50
2019-02-25T01:55:48.528Z,8.77
2019-02-25T01:58:15.857Z,8.63
2019-02-25T02:00:43.230Z,7.87
2019-02-25T02:03:10.596Z,8.53
2019-02-25T02:05:37.896Z,8.43
2019-02-25T02:08:05.174Z,7.97
2019-02-25T02:10:32.515Z,11.00
2019-02-25T02:12:59.987Z,8.00
2019-02-25T02:15:27.353Z,9.90
2019-02-25T02:17:54.686Z,9.17
2019-02-25T02:20:21.968Z,9.63
2019-02-25T02:22:49.249Z,9.67
2019-02-25T02:25:16.506Z,9.50
2019-02-25T02:27:45.115Z,8.83
2019-02-25T02:30:34.967Z,8.77
2019-02-25T02:33:02.382Z,10.30
2019-02-25T02:35:29.920Z,8.47
2019-02-25T02:37:57.198Z,11.40
2019-02-25T02:40:24.449Z,9.63
2019-02-25T02:42:53.232Z,9.07
2019-02-25T02:45:30.742Z,9.43
2019-02-25T02:48:20.126Z,9.87
2019-02-25T02:50:47.384Z,9.47
2019-02-25T02:53:14.686Z,11.00
2019-02-25T02:55:43.063Z,8.47
2019-02-25T02:58:11.359Z,9.17
2019-02-25T03:00:38.688Z,8.77
2019-02-25T03:03:07.302Z,10.17
2019-02-25T03:05:34.608Z,8.80
2019-02-25T03:08:01.909Z,10.90
2019-02-25T03:10:29.202Z,8.73
2019-02-25T03:12:56.527Z,10.73
2019-02-25T03:15:23.906Z,9.63
2019-02-25T03:17:51.187Z,9.60
2019-02-25T03:20:18.630Z,13.30
2019-02-25T03:22:45.921Z,10.03
2019-02-25T03:25:14.630Z,10.10
2019-02-25T03:27:41.973Z,8.80
2019-02-25T03:30:14.913Z,9.53
2019-02-25T03:32:42.182Z,10.80
2019-02-25T03:35:09.689Z,8.40
2019-02-25T03:37:37.149Z,10.30
2019-02-25T03:40:05.819Z,11.40
2019-02-25T03:42:33.428Z,10.43
2019-02-25T03:45:00.757Z,9.27
2019-02-25T03:47:30.399Z,9.50
2019-02-25T03:49:57.668Z,9.10
2019-02-25T03:52:26.144Z,9.67
2019-02-25T03:54:53.450Z,9.43
2019-02-25T03:57:20.776Z,9.93
2019-02-25T03:59:48.072Z,9.53
2019-02-25T04:02:16.428Z,10.17
2019-02-25T04:04:43.745Z,8.20
2019-02-25T04:07:11.154Z,10.93
2019-02-25T04:09:41.784Z,10.97
2019-02-25T04:12:10.075Z,8.87
2019-02-25T04:14:37.424Z,9.47
2019-02-25T04:17:04.749Z,11.10
2019-02-25T04:19:32.145Z,9.40
2019-02-25T04:21:59.452Z,9.87
2019-02-25T04:24:26.720Z,10.20
2019-02-25T04:26:55.649Z,10.30
2019-02-25T04:29:23.404Z,10.70
2019-02-25T04:31:50.745Z,10.73
2019-02-25T04:34:18.043Z,8.97
2019-02-25T04:36:45.340Z,9.70
2019-02-25T04:39:12.703Z,9.87
2019-02-25T04:41:40.010Z,10.43
2019-02-25T04:44:08.536Z,9.03
2019-02-25T04:46:37.126Z,11.10
2019-02-25T04:49:04.405Z,11.50
2019-02-25T04:51:31.696Z,9.47
2019-02-25T04:53:59.002Z,9.70
2019-02-25T04:56:26.221Z,10.20
2019-02-25T04:58:53.536Z,9.73
2019-02-25T05:01:20.854Z,10.07
2019-02-25T05:03:48.137Z,10.17
2019-02-25T05:06:15.480Z,11.50
2019-02-25T05:08:42.799Z,9.97
2019-02-25T05:11:10.116Z,11.40
2019-02-25T05:13:37.362Z,9.90
2019-02-25T05:16:06.515Z,9.07
2019-02-25T05:18:33.801Z,11.53
2019-02-25T05:21:01.103Z,9.27
2019-02-25T05:23:28.565Z,11.00
2019-02-25T05:25:57.709Z,13.00
2019-02-25T05:28:24.957Z,12.10
2019-02-25T05:30:52.254Z,12.83
2019-02-25T05:33:19.579Z,14.37
2019-02-25T05:35:48.185Z,13.07
2019-02-25T05:38:16.571Z,16.77
2019-02-25T05:40:43.870Z,16.13
2019-02-25T05:43:11.213Z,16.27
2019-02-25T05:45:39.731Z,17.10
2019-02-25T05:48:07.064Z,12.50
2019-02-25T05:50:34.371Z,12.20
2019-02-25T05:53:03.700Z,12.27
2019-02-25T05:55:30.982Z,11.10
2019-02-25T05:57:58.279Z,11.40
2019-02-25T06:00:26.296Z,11.07
2019-02-25T06:02:53.753Z,12.17
2019-02-25T06:05:21.124Z,10.20
2019-02-25T06:07:48.451Z,12.27
2019-02-25T06:10:15.786Z,11.90
2019-02-25T06:12:43.120Z,8.07
2019-02-25T06:15:11.438Z,10.30
2019-02-25T06:17:38.784Z,12.10
2019-02-25T06:20:07.465Z,10.17
2019-02-25T06:22:34.758Z,9.50
2019-02-25T06:25:02.119Z,9.47
2019-02-25T06:27:30.954Z,9.97
2019-02-25T06:29:58.494Z,11.67
2019-02-25T06:32:25.844Z,11.87
2019-02-25T06:34:53.171Z,10.17
2019-02-25T06:37:20.489Z,10.13
2019-02-25T06:39:47.837Z,10.77
2019-02-25T06:42:15.136Z,10.43
2019-02-25T06:44:42.428Z,10.80
2019-02-25T06:47:09.669Z,9.47
2019-02-25T06:49:36.986Z,9.67
2019-02-25T06:52:04.267Z,12.47
2019-02-25T06:54:31.544Z,10.90
2019-02-25T06:56:58.816Z,14.50
2019-02-25T06:59:27.300Z,17.27
2019-02-25T07:01:54.577Z,19.27
2019-02-25T07:04:42.641Z,15.40
2019-02-25T07:07:13.429Z,13.73
2019-02-25T07:10:00.425Z,14.83
2019-02-25T07:12:39.154Z,16.70
2019-02-25T07:15:11.746Z,14.83
2019-02-25T07:18:14.193Z,15.87
2019-02-25T07:20:52.405Z,14.37
2019-02-25T07:23:38.162Z,15.00
2019-02-25T07:26:43.574Z,13.10
2019-02-25T07:29:49.085Z,12.47
2019-02-25T07:32:26.034Z,13.30
2019-02-25T07:35:11.829Z,14.43
2019-02-25T07:38:07.747Z,13.47
2019-02-25T07:40:53.326Z,10.73
2019-02-25T07:43:33.869Z,10.30
2019-02-25T07:46:09.283Z,9.63
2019-02-25T07:48:59.369Z,10.97
2019-02-25T07:51:58.365Z,11.87
2019-02-25T07:54:40.004Z,12.70
2019-02-25T07:57:25.684Z,16.67
2019-02-25T08:00:08.777Z,24.13
2019-02-25T08:03:04.649Z,19.80
2019-02-25T08:05:44.406Z,18.07
2019-02-25T08:08:18.787Z,18.03
2019-02-25T08:11:05.784Z,15.60
2019-02-25T08:14:04.896Z,14.33
2019-02-25T08:17:07.001Z,12.23
2019-02-25T08:19:52.757Z,10.97
2019-02-25T08:22:51.807Z,9.33
2019-02-25T08:25:56.891Z,8.03
2019-02-25T08:28:43.834Z,11.20
2019-02-25T08:31:33.469Z,9.33
2019-02-25T08:34:18.732Z,8.80
2019-02-25T08:37:32.557Z,11.23
2019-02-25T08:40:25.076Z,10.27
2019-02-25T08:42:58.847Z,10.60
2019-02-25T08:45:51.390Z,8.87
2019-02-25T08:48:26.801Z,9.10
2019-02-25T08:50:56.255Z,9.83
2019-02-25T08:53:23.700Z,12.90
2019-02-25T08:55:50.951Z,10.07
2019-02-25T08:58:18.253Z,8.17
2019-02-25T09:00:45.652Z,12.10
2019-02-25T09:03:12.980Z,12.73
2019-02-25T09:05:40.278Z,9.97
2019-02-25T09:08:07.629Z,8.07
2019-02-25T09:10:34.938Z,8.00
2019-02-25T09:13:02.264Z,7.80
2019-02-25T09:15:29.577Z,13.40
2019-02-25T09:17:55.912Z,13.90
2019-02-25T09:20:23.213Z,8.33
2019-02-25T09:22:51.844Z,9.83
2019-02-25T09:25:19.089Z,10.23
2019-02-25T09:27:46.387Z,9.57
2019-02-25T09:30:15.041Z,8.07
2019-02-25T09:32:42.835Z,11.20
2019-02-25T09:35:10.355Z,8.47
2019-02-25T09:37:37.686Z,7.83
2019-02-25T09:40:06.323Z,8.67
2019-02-25T09:42:34.783Z,9.27
2019-02-25T09:45:02.091Z,8.57
2019-02-25T09:47:50.203Z,11.13
2019-02-25T09:50:17.589Z,8.60
2019-02-25T09:52:44.864Z,10.53
2019-02-25T09:55:12.319Z,9.10
2019-02-25T09:57:39.649Z,8.40
2019-02-25T10:00:10.098Z,8.53
2019-02-25T10:02:37.449Z,10.90
2019-02-25T10:05:05.374Z,9.83
2019-02-25T10:07:33.747Z,9.03
2019-02-25T10:10:01.028Z,10.10
2019-02-25T10:12:29.512Z,10.07
2019-02-25T10:14:57.171Z,8.77
2019-02-25T10:17:24.598Z,9.93
2019-02-25T10:19:51.980Z,8.83
2019-02-25T10:22:19.280Z,10.17
2019-02-25T10:24:46.609Z,11.07
2019-02-25T10:27:13.922Z,8.73
2019-02-25T10:29:41.270Z,9.23
2019-02-25T10:32:08.694Z,8.43
2019-02-25T10:34:36.002Z,9.17
2019-02-25T10:37:03.309Z,8.27
2019-02-25T10:39:30.607Z,8.37
2019-02-25T10:41:59.504Z,8.60
2019-02-25T10:44:27.082Z,8.17
2019-02-25T10:46:54.393Z,8.27
2019-02-25T10:49:22.479Z,8.13
2019-02-25T10:51:51.098Z,7.10
2019-02-25T10:54:19.600Z,8.73
2019-02-25T10:56:55.858Z,9.63
2019-02-25T10:59:23.974Z,10.63
2019-02-25T11:01:51.309Z,7.27
2019-02-25T11:04:21.784Z,8.50
2019-02-25T11:06:49.702Z,9.70
2019-02-25T11:09:44.403Z,8.90
2019-02-25T11:12:12.252Z,8.10
2019-02-25T11:14:41.105Z,10.60
2019-02-25T11:17:08.756Z,8.33
2019-02-25T11:19:36.027Z,7.17
2019-02-25T11:22:05.361Z,8.07
2019-02-25T11:24:32.786Z,8.13
2019-02-25T11:27:01.063Z,8.60
2019-02-25T11:29:29.830Z,6.93
2019-02-25T11:31:57.271Z,8.10
2019-02-25T11:34:24.893Z,7.27
2019-02-25T11:36:54.450Z,9.17
2019-02-25T11:39:22.535Z,7.17
2019-02-25T11:42:03.295Z,8.13
2019-02-25T11:44:31.612Z,7.27
2019-02-25T11:46:59.079Z,7.87
2019-02-25T11:49:26.448Z,7.77
2019-02-25T11:51:54.945Z,9.37
2019-02-25T11:54:22.216Z,8.33
2019-02-25T11:56:49.504Z,7.57
2019-02-25T11:59:16.842Z,8.10
2019-02-25T12:01:44.152Z,7.30
2019-02-25T12:04:11.493Z,8.73
2019-02-25T12:06:38.823Z,7.40
2019-02-25T12:09:06.138Z,8.33
2019-02-25T12:11:33.842Z,6.10
2019-02-25T12:14:01.140Z,6.87
2019-02-25T12:16:28.497Z,7.77
2019-02-25T12:18:55.724Z,8.60
2019-02-25T12:21:23.021Z,7.67
2019-02-25T12:23:50.326Z,8.37
2019-02-25T12:26:18.768Z,7.00
2019-02-25T12:28:46.105Z,9.47
2019-02-25T12:31:13.436Z,9.23
2019-02-25T12:33:40.797Z,9.03
2019-02-25T12:36:08.202Z,7.43
2019-02-25T12:38:35.463Z,8.97
2019-02-25T12:41:02.748Z,6.83
2019-02-25T12:43:30.116Z,7.73
2019-02-25T12:45:57.455Z,9.27
2019-02-25T12:48:24.808Z,7.73
2019-02-25T12:50:52.093Z,8.60
2019-02-25T12:53:19.408Z,8.90
2019-02-25T12:55:46.691Z,9.93
2019-02-25T12:58:14.168Z,9.70
2019-02-25T13:00:41.664Z,7.30
2019-02-25T13:03:09.045Z,7.47
2019-02-25T13:05:36.356Z,8.37
2019-02-25T13:08:03.862Z,8.27
2019-02-25T13:10:31.181Z,8.73
2019-02-25T13:12:58.502Z,9.67
2019-02-25T13:15:25.797Z,7.47
2019-02-25T13:17:53.163Z,7.47
2019-02-25T13:20:20.540Z,6.73
2019-02-25T13:22:47.800Z,8.60
2019-02-25T13:25:15.129Z,8.90
2019-02-25T13:27:42.414Z,8.17
2019-02-25T13:30:12.217Z,6.43
2019-02-25T13:32:39.626Z,8.53
2019-02-25T13:35:07.237Z,7.33
2019-02-25T13:37:35.024Z,7.60
2019-02-25T13:40:02.653Z,7.57
2019-02-25T13:42:31.333Z,6.30
2019-02-25T13:44:58.781Z,7.60
2019-02-25T13:47:26.305Z,8.97
2019-02-25T13:49:55.529Z,7.50
2019-02-25T13:52:23.051Z,6.80
2019-02-25T13:54:50.496Z,9.40
2019-02-25T13:57:17.951Z,7.60
2019-02-25T13:59:46.529Z,9.50
2019-02-25T14:02:13.960Z,8.03
2019-02-25T14:04:41.395Z,8.40
2019-02-25T14:07:10.059Z,7.60
2019-02-25T14:09:37.551Z,7.77
2019-02-25T14:12:04.881Z,7.63
2019-02-25T14:14:32.250Z,8.30
2019-02-25T14:16:59.697Z,7.53
2019-02-25T14:19:27.157Z,8.23
2019-02-25T14:21:56.104Z,8.20
2019-02-25T14:24:25.206Z,6.83
2019-02-25T14:26:54.533Z,7.47
2019-02-25T14:29:26.162Z,9.10
2019-02-25T14:32:04.318Z,7.43
2019-02-25T14:34:31.884Z,7.80
2019-02-25T14:37:00.216Z,7.63
2019-02-25T14:39:33.020Z,7.70
2019-02-25T14:42:04.267Z,7.87
2019-02-25T14:44:35.159Z,7.70
2019-02-25T14:47:03.393Z,8.87
2019-02-25T14:49:32.729Z,7.80
2019-02-25T14:52:00.205Z,7.30
2019-02-25T14:54:29.483Z,7.97
2019-02-25T14:56:57.176Z,8.10
2019-02-25T14:59:24.657Z,6.80
2019-02-25T15:01:52.130Z,6.97
2019-02-25T15:04:19.567Z,10.00
2019-02-25T15:06:47.323Z,9.27
2019-02-25T15:09:16.510Z,10.17
2019-02-25T15:11:43.959Z,9.13
2019-02-25T15:14:12.855Z,8.20
2019-02-25T15:16:40.834Z,10.07
2019-02-25T15:19:08.265Z,10.67
2019-02-25T15:21:35.908Z,12.05
2019-02-25T15:24:04.691Z,9.43
2019-02-25T15:26:42.255Z,9.20
2019-02-25T15:29:02.908Z,9.65
2019-02-25T15:31:31.220Z,9.78
2019-02-25T15:33:58.680Z,9.23
2019-02-25T15:36:26.991Z,11.18
2019-02-25T15:38:55.624Z,10.75
2019-02-25T15:41:23.061Z,10.43
2019-02-25T15:43:50.601Z,10.53
2019-02-25T15:46:19.631Z,11.63
2019-02-25T15:48:47.222Z,10.80
2019-02-25T15:51:14.873Z,9.30
2019-02-25T15:53:46.284Z,11.05
2019-02-25T15:56:12.352Z,7.10
2019-02-25T15:58:39.894Z,7.42
2019-02-25T16:01:10.024Z,7.45
2019-02-25T16:03:40.872Z,9.25
2019-02-25T16:06:10.143Z,7.87
2019-02-25T16:08:37.799Z,7.60
2019-02-25T16:11:05.324Z,7.00
2019-02-25T16:26:00.670Z,11.30
2019-02-25T16:28:28.968Z,11.83
2019-02-25T16:30:56.913Z,11.87
2019-02-25T16:33:25.938Z,9.00
2019-02-25T16:35:53.679Z,10.87
2019-02-25T16:38:23.150Z,10.43
2019-02-25T16:40:50.356Z,9.57
2019-02-25T16:43:18.942Z,9.60
2019-02-25T16:45:47.776Z,9.20
2019-02-25T16:48:15.216Z,11.33
2019-02-25T16:50:46.301Z,11.67
2019-02-25T16:53:15.420Z,10.93
2019-02-25T16:55:46.743Z,12.53
2019-02-25T16:58:14.022Z,9.50
2019-02-25T17:00:42.010Z,10.67
2019-02-25T17:03:11.191Z,10.73
2019-02-25T17:05:40.273Z,11.23
2019-02-25T17:08:12.427Z,8.77
2019-02-25T17:10:39.965Z,17.30
2019-02-25T17:13:08.106Z,11.87
2019-02-25T17:15:36.929Z,12.07
2019-02-25T17:18:04.365Z,8.80
2019-02-25T17:20:32.089Z,9.33
2019-02-25T17:22:59.806Z,11.30
2019-02-25T17:25:31.309Z,12.33
2019-02-25T17:27:56.702Z,11.13
2019-02-25T18:12:31.747Z,23.27
2019-02-25T18:15:03.512Z,24.70
2019-02-25T18:17:32.956Z,24.70
2019-02-25T18:20:00.257Z,25.20
2019-02-25T18:22:27.702Z,23.33
2019-02-25T18:24:55.300Z,20.87
2019-02-25T18:27:22.725Z,14.47
2019-02-25T18:29:52.546Z,17.40
2019-02-25T18:32:21.059Z,16.30
2019-02-25T18:34:50.029Z,16.50
2019-02-25T18:37:18.330Z,15.17
2019-02-25T18:39:47.702Z,17.10
2019-02-25T18:42:15.976Z,16.07
2019-02-25T18:44:47.002Z,15.80
2019-02-25T18:47:16.450Z,13.40
2019-02-25T18:49:44.613Z,13.80
2019-02-25T18:52:12.213Z,14.07
2019-02-25T18:54:43.319Z,15.97
2019-02-25T18:57:11.791Z,19.80
2019-02-25T18:59:39.496Z,16.57
2019-02-25T19:02:08.023Z,14.00
2019-02-25T19:04:37.581Z,16.23
2019-02-25T19:07:07.937Z,13.10
2019-02-25T19:09:36.097Z,13.20
2019-02-25T19:12:05.856Z,15.83
2019-02-25T19:14:35.913Z,13.10
2019-02-25T19:17:06.531Z,11.90
2019-02-25T19:19:38.164Z,11.40
2019-02-25T19:22:06.027Z,10.27
2019-02-25T19:24:37.539Z,12.03
2019-02-25T19:27:04.359Z,12.37
2019-02-25T19:29:32.696Z,14.03
2019-02-25T19:32:01.161Z,12.50
2019-02-25T19:34:28.843Z,12.30
2019-02-25T19:37:00.705Z,10.83
2019-02-25T19:39:25.950Z,10.27
2019-02-25T19:41:56.246Z,11.67
2019-02-25T19:44:23.347Z,11.73
2019-02-25T19:46:53.177Z,10.47
2019-02-25T19:49:22.136Z,10.47
2019-02-25T19:51:50.712Z,11.13
2019-02-25T19:54:19.520Z,11.67
2019-02-25T19:56:50.686Z,11.27
2019-02-25T19:59:19.370Z,9.00
2019-02-25T20:01:47.842Z,11.17
2019-02-25T20:04:16.439Z,10.13
2019-02-25T20:06:46.815Z,12.80
2019-02-25T20:09:15.850Z,11.50
2019-02-25T20:11:45.277Z,13.60
2019-02-25T20:14:16.573Z,10.00
2019-02-25T20:16:44.300Z,13.70
2019-02-25T20:19:12.292Z,17.30
2019-02-25T20:21:40.250Z,18.27
2019-02-25T20:24:12.362Z,19.60
2019-02-25T20:26:37.637Z,16.53
2019-02-25T20:29:06.347Z,15.07
2019-02-25T20:31:37.653Z,13.97
2019-02-25T20:34:05.249Z,15.10
2019-02-25T20:36:34.156Z,15.73
2019-02-25T20:39:01.909Z,12.93
2019-02-25T20:41:31.479Z,12.03
2019-02-25T20:44:00.638Z,13.47
2019-02-25T20:46:30.724Z,11.23
2019-02-25T20:48:59.932Z,11.20
2019-02-25T20:51:29.854Z,11.23
2019-02-25T20:53:57.368Z,12.83
2019-02-25T20:56:26.672Z,11.00
2019-02-25T20:58:55.749Z,13.27
2019-02-25T21:01:23.432Z,11.43
2019-02-25T21:03:52.674Z,10.43
2019-02-25T21:06:21.260Z,11.43
2019-02-25T21:08:49.117Z,12.60
2019-02-25T21:11:16.831Z,9.43
2019-02-25T21:13:44.563Z,11.53
2019-02-25T21:16:12.173Z,11.43
2019-02-25T21:18:40.949Z,9.80
2019-02-25T21:21:10.121Z,12.43
2019-02-25T21:23:38.318Z,14.30
2019-02-25T21:26:07.450Z,11.87
2019-02-25T21:28:36.493Z,10.83
2019-02-25T21:31:07.139Z,14.53
2019-02-25T21:33:34.295Z,15.00
2019-02-25T21:36:01.933Z,30.30
2019-02-25T21:38:30.288Z,26.07
2019-02-25T21:40:58.122Z,27.33
2019-02-25T21:43:28.399Z,29.60
2019-02-25T21:45:56.685Z,22.30
2019-02-25T21:48:25.699Z,25.10
2019-02-25T21:50:54.032Z,23.70
2019-02-25T21:53:21.713Z,22.70
2019-02-25T21:55:52.969Z,19.90
2019-02-25T21:58:21.441Z,21.20
2019-02-25T22:00:49.946Z,18.07
2019-02-25T22:03:19.454Z,21.47
2019-02-25T22:05:49.352Z,21.50
2019-02-25T22:08:20.035Z,18.90
2019-02-25T22:10:46.337Z,19.27
2019-02-25T22:13:15.945Z,18.43
2019-02-25T22:15:45.305Z,17.03
2019-02-25T22:18:14.108Z,17.13
2019-02-25T22:20:42.736Z,17.50
2019-02-25T22:23:11.241Z,15.17
2019-02-25T22:25:38.766Z,18.37
2019-02-25T22:28:07.817Z,13.43
2019-02-25T22:30:36.758Z,15.03
2019-02-25T22:33:04.820Z,17.17
2019-02-25T22:35:37.417Z,15.87
2019-02-25T22:38:03.138Z,14.93
2019-02-25T22:40:32.229Z,15.13
2019-02-25T22:43:00.084Z,14.37
2019-02-25T22:45:27.678Z,13.73
2019-02-25T22:47:55.320Z,13.13
2019-02-25T22:50:22.876Z,12.87
2019-02-25T22:52:55.613Z,11.93
2019-02-25T22:55:22.114Z,12.20
2019-02-25T22:57:51.900Z,12.40
2019-02-25T23:00:28.200Z,16.33
2019-02-25T23:02:57.695Z,14.10
2019-02-25T23:05:25.576Z,14.63
2019-02-25T23:07:54.698Z,18.10
2019-02-25T23:10:24.197Z,14.97
2019-02-25T23:12:52.982Z,18.90
2019-02-25T23:15:22.696Z,17.83
2019-02-25T23:17:50.106Z,17.93
2019-02-25T23:20:18.705Z,21.43
2019-02-25T23:22:46.356Z,20.50
2019-02-25T23:25:13.986Z,17.90
2019-02-25T23:27:41.459Z,18.17
2019-02-25T23:30:09.208Z,18.53
2019-02-25T23:32:38.811Z,18.43
2019-02-25T23:35:09.457Z,17.50
2019-02-25T23:37:35.595Z,15.57
2019-02-25T23:40:06.730Z,17.20
2019-02-25T23:42:35.281Z,18.80
2019-02-25T23:45:02.642Z,19.17
2019-02-25T23:47:31.657Z,17.50
2019-02-25T23:50:01.164Z,21.07
2019-02-25T23:52:30.977Z,24.07
2019-02-25T23:54:58.598Z,21.57
2019-02-25T23:57:28.295Z,20.67
2019-02-25T23:59:55.774Z,18.90
